sensor_id;sensor_type;location;lat;lon;timestamp;P1;durP1;ratioP1;P2;durP2;ratioP2
48042;SDS011;33988;47.992;8.820;2023-11-19T00:00:27;3.70;;;2.50;;
48042;SDS011;33988;47.992;8.820;2023-11-19T00:02:56;2.40;;;1.88;;
48042;SDS011;33988;47.992;8.820;2023-11-19T00:05:23;2.13;;;1.92;;
48042;SDS011;33988;47.992;8.820;2023-11-19T00:07:50;2.50;;;2.20;;
48042;SDS011;33988;47.992;8.820;2023-11-19T00:10:17;2.47;;;1.92;;
48042;SDS011;33988;47.992;8.820;2023-11-19T00:12:47;2.33;;;2.13;;
48042;SDS011;33988;47.992;8.820;2023-11-19T00:15:18;2.25;;;2.05;;
48042;SDS011;33988;47.992;8.820;2023-11-19T00:20:20;2.45;;;2.10;;
48042;SDS011;33988;47.992;8.820;2023-11-19T00:22:52;2.70;;;2.33;;
48042;SDS011;33988;47.992;8.820;2023-11-19T00:25:19;2.38;;;2.17;;
48042;SDS011;33988;47.992;8.820;2023-11-19T00:27:51;2.38;;;2.08;;
48042;SDS011;33988;47.992;8.820;2023-11-19T00:30:20;2.20;;;2.00;;
48042;SDS011;33988;47.992;8.820;2023-11-19T00:32:49;2.10;;;1.90;;
48042;SDS011;33988;47.992;8.820;2023-11-19T00:35:16;3.67;;;1.77;;
48042;SDS011;33988;47.992;8.820;2023-11-19T00:37:46;1.67;;;1.58;;
48042;SDS011;33988;47.992;8.820;2023-11-19T00:40:14;2.53;;;1.90;;
48042;SDS011;33988;47.992;8.820;2023-11-19T00:42:42;4.47;;;2.83;;
48042;SDS011;33988;47.992;8.820;2023-11-19T00:45:10;6.55;;;3.42;;
48042;SDS011;33988;47.992;8.820;2023-11-19T00:47:38;7.68;;;4.20;;
48042;SDS011;33988;47.992;8.820;2023-11-19T00:50:08;3.25;;;2.10;;
48042;SDS011;33988;47.992;8.820;2023-11-19T00:52:36;3.15;;;2.00;;
48042;SDS011;33988;47.992;8.820;2023-11-19T00:55:04;3.53;;;1.80;;
48042;SDS011;33988;47.992;8.820;2023-11-19T00:57:37;2.03;;;1.70;;
48042;SDS011;33988;47.992;8.820;2023-11-19T01:00:06;2.00;;;1.70;;
48042;SDS011;33988;47.992;8.820;2023-11-19T01:02:54;4.40;;;2.22;;
48042;SDS011;33988;47.992;8.820;2023-11-19T01:05:23;2.40;;;1.80;;
48042;SDS011;33988;47.992;8.820;2023-11-19T01:07:53;1.95;;;1.73;;
48042;SDS011;33988;47.992;8.820;2023-11-19T01:10:22;3.05;;;1.88;;
48042;SDS011;33988;47.992;8.820;2023-11-19T01:12:51;1.75;;;1.58;;
48042;SDS011;33988;47.992;8.820;2023-11-19T01:15:18;3.15;;;2.33;;
48042;SDS011;33988;47.992;8.820;2023-11-19T01:17:45;4.20;;;2.65;;
48042;SDS011;33988;47.992;8.820;2023-11-19T01:20:19;3.90;;;2.70;;
48042;SDS011;33988;47.992;8.820;2023-11-19T01:22:52;4.93;;;2.30;;
48042;SDS011;33988;47.992;8.820;2023-11-19T01:25:19;3.42;;;2.13;;
48042;SDS011;33988;47.992;8.820;2023-11-19T01:27:46;4.85;;;2.42;;
48042;SDS011;33988;47.992;8.820;2023-11-19T01:30:19;7.38;;;4.10;;
48042;SDS011;33988;47.992;8.820;2023-11-19T01:32:46;6.28;;;3.22;;
48042;SDS011;33988;47.992;8.820;2023-11-19T01:35:13;11.73;;;5.20;;
48042;SDS011;33988;47.992;8.820;2023-11-19T01:37:40;4.60;;;2.53;;
48042;SDS011;33988;47.992;8.820;2023-11-19T01:40:08;2.25;;;1.30;;
48042;SDS011;33988;47.992;8.820;2023-11-19T01:42:38;1.00;;;0.90;;
48042;SDS011;33988;47.992;8.820;2023-11-19T01:45:07;1.00;;;1.00;;
48042;SDS011;33988;47.992;8.820;2023-11-19T01:47:36;0.80;;;0.80;;
48042;SDS011;33988;47.992;8.820;2023-11-19T01:50:07;0.80;;;0.80;;
48042;SDS011;33988;47.992;8.820;2023-11-19T01:52:35;0.77;;;0.77;;
48042;SDS011;33988;47.992;8.820;2023-11-19T01:55:04;1.10;;;1.00;;
48042;SDS011;33988;47.992;8.820;2023-11-19T01:57:35;1.30;;;1.00;;
48042;SDS011;33988;47.992;8.820;2023-11-19T02:00:07;1.33;;;1.23;;
48042;SDS011;33988;47.992;8.820;2023-11-19T02:02:48;1.75;;;1.20;;
48042;SDS011;33988;47.992;8.820;2023-11-19T02:05:18;1.95;;;1.63;;
48042;SDS011;33988;47.992;8.820;2023-11-19T02:07:51;3.28;;;1.55;;
48042;SDS011;33988;47.992;8.820;2023-11-19T02:10:18;1.40;;;1.27;;
48042;SDS011;33988;47.992;8.820;2023-11-19T02:12:48;1.52;;;1.40;;
48042;SDS011;33988;47.992;8.820;2023-11-19T02:15:15;1.38;;;1.27;;
48042;SDS011;33988;47.992;8.820;2023-11-19T02:17:45;1.60;;;1.50;;
48042;SDS011;33988;47.992;8.820;2023-11-19T02:20:14;1.52;;;1.42;;
48042;SDS011;33988;47.992;8.820;2023-11-19T02:22:46;1.85;;;1.67;;
48042;SDS011;33988;47.992;8.820;2023-11-19T02:25:17;1.75;;;1.60;;
48042;SDS011;33988;47.992;8.820;2023-11-19T02:27:59;2.15;;;1.80;;
48042;SDS011;33988;47.992;8.820;2023-11-19T02:30:30;2.25;;;1.77;;
48042;SDS011;33988;47.992;8.820;2023-11-19T02:33:00;2.17;;;1.95;;
48042;SDS011;33988;47.992;8.820;2023-11-19T02:35:34;1.92;;;1.63;;
48042;SDS011;33988;47.992;8.820;2023-11-19T02:38:04;1.90;;;1.70;;
48042;SDS011;33988;47.992;8.820;2023-11-19T02:40:33;2.30;;;1.70;;
48042;SDS011;33988;47.992;8.820;2023-11-19T02:43:02;1.70;;;1.60;;
48042;SDS011;33988;47.992;8.820;2023-11-19T02:45:31;1.90;;;1.58;;
48042;SDS011;33988;47.992;8.820;2023-11-19T02:47:58;1.88;;;1.73;;
48042;SDS011;33988;47.992;8.820;2023-11-19T02:50:28;2.17;;;1.67;;
48042;SDS011;33988;47.992;8.820;2023-11-19T02:52:55;2.67;;;1.35;;
48042;SDS011;33988;47.992;8.820;2023-11-19T02:55:27;1.67;;;1.30;;
48042;SDS011;33988;47.992;8.820;2023-11-19T02:57:57;2.00;;;1.30;;
48042;SDS011;33988;47.992;8.820;2023-11-19T03:00:29;1.25;;;1.13;;
48042;SDS011;33988;47.992;8.820;2023-11-19T03:03:02;1.20;;;1.10;;
48042;SDS011;33988;47.992;8.820;2023-11-19T03:05:47;1.30;;;0.98;;
48042;SDS011;33988;47.992;8.820;2023-11-19T03:08:15;1.10;;;1.00;;
48042;SDS011;33988;47.992;8.820;2023-11-19T03:10:46;1.83;;;1.30;;
48042;SDS011;33988;47.992;8.820;2023-11-19T03:13:21;2.47;;;1.30;;
48042;SDS011;33988;47.992;8.820;2023-11-19T03:15:48;1.05;;;1.00;;
48042;SDS011;33988;47.992;8.820;2023-11-19T03:18:20;1.17;;;1.00;;
48042;SDS011;33988;47.992;8.820;2023-11-19T03:20:47;1.40;;;1.17;;
48042;SDS011;33988;47.992;8.820;2023-11-19T03:23:16;1.42;;;1.30;;
48042;SDS011;33988;47.992;8.820;2023-11-19T03:25:45;1.30;;;1.20;;
48042;SDS011;33988;47.992;8.820;2023-11-19T03:28:12;0.88;;;0.88;;
48042;SDS011;33988;47.992;8.820;2023-11-19T03:30:39;1.60;;;1.00;;
48042;SDS011;33988;47.992;8.820;2023-11-19T03:33:09;1.38;;;1.27;;
48042;SDS011;33988;47.992;8.820;2023-11-19T03:35:41;1.40;;;1.20;;
48042;SDS011;33988;47.992;8.820;2023-11-19T03:38:08;1.10;;;1.02;;
48042;SDS011;33988;47.992;8.820;2023-11-19T03:40:35;1.35;;;1.25;;
48042;SDS011;33988;47.992;8.820;2023-11-19T03:43:05;1.48;;;1.20;;
48042;SDS011;33988;47.992;8.820;2023-11-19T03:45:38;1.20;;;1.08;;
48042;SDS011;33988;47.992;8.820;2023-11-19T03:48:05;1.30;;;1.20;;
48042;SDS011;33988;47.992;8.820;2023-11-19T03:50:32;1.50;;;1.40;;
48042;SDS011;33988;47.992;8.820;2023-11-19T03:52:59;1.40;;;1.30;;
48042;SDS011;33988;47.992;8.820;2023-11-19T03:55:26;1.75;;;1.50;;
48042;SDS011;33988;47.992;8.820;2023-11-19T03:57:53;2.10;;;1.10;;
48042;SDS011;33988;47.992;8.820;2023-11-19T04:00:23;1.42;;;1.33;;
48042;SDS011;33988;47.992;8.820;2023-11-19T04:02:54;1.70;;;1.45;;
48042;SDS011;33988;47.992;8.820;2023-11-19T04:05:21;1.85;;;1.70;;
48042;SDS011;33988;47.992;8.820;2023-11-19T04:07:50;1.52;;;1.42;;
48042;SDS011;33988;47.992;8.820;2023-11-19T04:10:17;1.60;;;1.50;;
48042;SDS011;33988;47.992;8.820;2023-11-19T04:12:44;1.60;;;1.40;;
48042;SDS011;33988;47.992;8.820;2023-11-19T04:15:11;2.10;;;1.55;;
48042;SDS011;33988;47.992;8.820;2023-11-19T04:17:42;1.45;;;1.35;;
48042;SDS011;33988;47.992;8.820;2023-11-19T04:20:09;1.83;;;1.40;;
48042;SDS011;33988;47.992;8.820;2023-11-19T04:22:41;1.75;;;1.65;;
48042;SDS011;33988;47.992;8.820;2023-11-19T04:25:10;2.00;;;1.75;;
48042;SDS011;33988;47.992;8.820;2023-11-19T04:27:41;1.80;;;1.60;;
48042;SDS011;33988;47.992;8.820;2023-11-19T04:30:08;2.03;;;1.77;;
48042;SDS011;33988;47.992;8.820;2023-11-19T04:32:38;1.77;;;1.45;;
48042;SDS011;33988;47.992;8.820;2023-11-19T04:35:08;1.67;;;1.50;;
48042;SDS011;33988;47.992;8.820;2023-11-19T04:37:38;1.60;;;1.50;;
48042;SDS011;33988;47.992;8.820;2023-11-19T04:40:05;1.40;;;1.30;;
48042;SDS011;33988;47.992;8.820;2023-11-19T04:42:33;2.00;;;1.30;;
48042;SDS011;33988;47.992;8.820;2023-11-19T04:45:00;1.92;;;1.42;;
48042;SDS011;33988;47.992;8.820;2023-11-19T04:50:05;1.75;;;1.35;;
48042;SDS011;33988;47.992;8.820;2023-11-19T04:52:39;1.27;;;1.17;;
48042;SDS011;33988;47.992;8.820;2023-11-19T04:55:07;1.30;;;1.17;;
48042;SDS011;33988;47.992;8.820;2023-11-19T04:57:38;1.75;;;1.30;;
48042;SDS011;33988;47.992;8.820;2023-11-19T05:00:05;1.38;;;1.20;;
48042;SDS011;33988;47.992;8.820;2023-11-19T05:02:36;2.90;;;1.35;;
48042;SDS011;33988;47.992;8.820;2023-11-19T05:05:04;1.20;;;0.93;;
48042;SDS011;33988;47.992;8.820;2023-11-19T05:10:05;0.82;;;0.73;;
48042;SDS011;33988;47.992;8.820;2023-11-19T05:12:33;1.17;;;0.80;;
48042;SDS011;33988;47.992;8.820;2023-11-19T05:15:00;0.70;;;0.70;;
48042;SDS011;33988;47.992;8.820;2023-11-19T05:17:27;0.60;;;0.60;;
48042;SDS011;33988;47.992;8.820;2023-11-19T05:19:54;0.40;;;0.40;;
48042;SDS011;33988;47.992;8.820;2023-11-19T05:22:21;0.60;;;0.60;;
48042;SDS011;33988;47.992;8.820;2023-11-19T05:24:50;0.68;;;0.50;;
48042;SDS011;33988;47.992;8.820;2023-11-19T05:27:18;0.60;;;0.60;;
48042;SDS011;33988;47.992;8.820;2023-11-19T05:29:45;1.63;;;1.13;;
48042;SDS011;33988;47.992;8.820;2023-11-19T05:32:12;1.10;;;0.82;;
48042;SDS011;33988;47.992;8.820;2023-11-19T05:34:39;0.80;;;0.80;;
48042;SDS011;33988;47.992;8.820;2023-11-19T05:37:17;0.85;;;0.70;;
48042;SDS011;33988;47.992;8.820;2023-11-19T05:39:45;0.60;;;0.60;;
48042;SDS011;33988;47.992;8.820;2023-11-19T05:42:17;1.27;;;0.60;;
48042;SDS011;33988;47.992;8.820;2023-11-19T05:44:44;0.70;;;0.50;;
48042;SDS011;33988;47.992;8.820;2023-11-19T05:47:13;0.85;;;0.70;;
48042;SDS011;33988;47.992;8.820;2023-11-19T05:49:40;1.02;;;0.57;;
48042;SDS011;33988;47.992;8.820;2023-11-19T05:52:10;0.60;;;0.60;;
48042;SDS011;33988;47.992;8.820;2023-11-19T05:54:39;0.77;;;0.68;;
48042;SDS011;33988;47.992;8.820;2023-11-19T05:57:08;1.55;;;0.60;;
48042;SDS011;33988;47.992;8.820;2023-11-19T06:02:07;0.50;;;0.50;;
48042;SDS011;33988;47.992;8.820;2023-11-19T06:04:34;0.40;;;0.40;;
48042;SDS011;33988;47.992;8.820;2023-11-19T06:07:03;0.38;;;0.38;;
48042;SDS011;33988;47.992;8.820;2023-11-19T06:09:32;0.70;;;0.65;;
48042;SDS011;33988;47.992;8.820;2023-11-19T06:12:00;0.50;;;0.50;;
48042;SDS011;33988;47.992;8.820;2023-11-19T06:14:28;0.60;;;0.60;;
48042;SDS011;33988;47.992;8.820;2023-11-19T06:16:55;0.60;;;0.50;;
48042;SDS011;33988;47.992;8.820;2023-11-19T06:19:22;0.35;;;0.35;;
48042;SDS011;33988;47.992;8.820;2023-11-19T06:21:55;0.55;;;0.35;;
48042;SDS011;33988;47.992;8.820;2023-11-19T06:24:23;0.43;;;0.43;;
48042;SDS011;33988;47.992;8.820;2023-11-19T06:26:50;0.50;;;0.50;;
48042;SDS011;33988;47.992;8.820;2023-11-19T06:29:17;0.38;;;0.38;;
48042;SDS011;33988;47.992;8.820;2023-11-19T06:31:45;0.40;;;0.40;;
48042;SDS011;33988;47.992;8.820;2023-11-19T06:34:15;0.50;;;0.50;;
48042;SDS011;33988;47.992;8.820;2023-11-19T06:36:44;0.95;;;0.60;;
48042;SDS011;33988;47.992;8.820;2023-11-19T06:39:11;0.60;;;0.60;;
48042;SDS011;33988;47.992;8.820;2023-11-19T06:41:46;0.73;;;0.63;;
48042;SDS011;33988;47.992;8.820;2023-11-19T06:44:14;0.65;;;0.65;;
48042;SDS011;33988;47.992;8.820;2023-11-19T06:46:41;0.60;;;0.60;;
48042;SDS011;33988;47.992;8.820;2023-11-19T06:49:08;0.80;;;0.65;;
48042;SDS011;33988;47.992;8.820;2023-11-19T06:51:35;0.68;;;0.68;;
48042;SDS011;33988;47.992;8.820;2023-11-19T06:54:04;0.93;;;0.82;;
48042;SDS011;33988;47.992;8.820;2023-11-19T06:56:31;0.70;;;0.70;;
48042;SDS011;33988;47.992;8.820;2023-11-19T06:58:58;0.70;;;0.70;;
48042;SDS011;33988;47.992;8.820;2023-11-19T07:01:25;1.17;;;1.05;;
48042;SDS011;33988;47.992;8.820;2023-11-19T07:03:53;1.58;;;1.20;;
48042;SDS011;33988;47.992;8.820;2023-11-19T07:06:24;1.00;;;0.88;;
48042;SDS011;33988;47.992;8.820;2023-11-19T07:08:58;1.63;;;1.10;;
48042;SDS011;33988;47.992;8.820;2023-11-19T07:11:36;1.50;;;1.13;;
48042;SDS011;33988;47.992;8.820;2023-11-19T07:14:08;0.80;;;0.77;;
48042;SDS011;33988;47.992;8.820;2023-11-19T07:16:37;0.85;;;0.77;;
48042;SDS011;33988;47.992;8.820;2023-11-19T07:19:08;1.20;;;1.10;;
48042;SDS011;33988;47.992;8.820;2023-11-19T07:21:35;0.88;;;0.65;;
48042;SDS011;33988;47.992;8.820;2023-11-19T07:24:10;0.70;;;0.70;;
48042;SDS011;33988;47.992;8.820;2023-11-19T07:26:43;1.00;;;0.60;;
48042;SDS011;33988;47.992;8.820;2023-11-19T07:29:14;0.70;;;0.70;;
48042;SDS011;33988;47.992;8.820;2023-11-19T07:31:48;1.13;;;1.02;;
48042;SDS011;33988;47.992;8.820;2023-11-19T07:34:18;2.40;;;1.40;;
48042;SDS011;33988;47.992;8.820;2023-11-19T07:36:46;1.77;;;1.13;;
48042;SDS011;33988;47.992;8.820;2023-11-19T07:39:13;2.08;;;1.40;;
48042;SDS011;33988;47.992;8.820;2023-11-19T07:41:40;1.52;;;1.25;;
48042;SDS011;33988;47.992;8.820;2023-11-19T07:44:10;1.50;;;1.30;;
48042;SDS011;33988;47.992;8.820;2023-11-19T07:46:37;1.60;;;1.50;;
48042;SDS011;33988;47.992;8.820;2023-11-19T07:49:04;1.65;;;1.52;;
48042;SDS011;33988;47.992;8.820;2023-11-19T07:51:31;1.85;;;1.58;;
48042;SDS011;33988;47.992;8.820;2023-11-19T07:53:58;2.10;;;1.80;;
48042;SDS011;33988;47.992;8.820;2023-11-19T07:56:25;1.90;;;1.70;;
48042;SDS011;33988;47.992;8.820;2023-11-19T07:58:55;1.80;;;1.70;;
48042;SDS011;33988;47.992;8.820;2023-11-19T08:01:22;1.45;;;1.35;;
48042;SDS011;33988;47.992;8.820;2023-11-19T08:03:50;1.60;;;1.50;;
48042;SDS011;33988;47.992;8.820;2023-11-19T08:06:21;2.10;;;1.83;;
48042;SDS011;33988;47.992;8.820;2023-11-19T08:08:51;1.95;;;1.73;;
48042;SDS011;33988;47.992;8.820;2023-11-19T08:11:18;2.10;;;1.90;;
48042;SDS011;33988;47.992;8.820;2023-11-19T08:13:50;2.65;;;2.25;;
48042;SDS011;33988;47.992;8.820;2023-11-19T08:16:17;2.25;;;2.05;;
48042;SDS011;33988;47.992;8.820;2023-11-19T08:18:44;2.60;;;2.30;;
48042;SDS011;33988;47.992;8.820;2023-11-19T08:21:13;3.53;;;2.40;;
48042;SDS011;33988;47.992;8.820;2023-11-19T08:23:43;3.55;;;2.90;;
48042;SDS011;33988;47.992;8.820;2023-11-19T08:26:10;5.05;;;2.75;;
48042;SDS011;33988;47.992;8.820;2023-11-19T08:28:41;3.35;;;3.00;;
48042;SDS011;33988;47.992;8.820;2023-11-19T08:31:09;4.45;;;3.47;;
48042;SDS011;33988;47.992;8.820;2023-11-19T08:33:36;3.90;;;3.10;;
48042;SDS011;33988;47.992;8.820;2023-11-19T08:36:05;3.97;;;3.08;;
48042;SDS011;33988;47.992;8.820;2023-11-19T08:38:33;2.90;;;2.42;;
48042;SDS011;33988;47.992;8.820;2023-11-19T08:41:02;2.60;;;2.30;;
48042;SDS011;33988;47.992;8.820;2023-11-19T08:43:30;2.88;;;2.38;;
48042;SDS011;33988;47.992;8.820;2023-11-19T08:45:58;3.00;;;2.70;;
48042;SDS011;33988;47.992;8.820;2023-11-19T08:48:25;3.30;;;2.78;;
48042;SDS011;33988;47.992;8.820;2023-11-19T08:50:53;2.97;;;2.58;;
48042;SDS011;33988;47.992;8.820;2023-11-19T08:53:20;3.22;;;2.75;;
48042;SDS011;33988;47.992;8.820;2023-11-19T08:55:51;3.72;;;2.88;;
48042;SDS011;33988;47.992;8.820;2023-11-19T08:58:20;3.80;;;2.85;;
48042;SDS011;33988;47.992;8.820;2023-11-19T09:00:47;2.17;;;1.98;;
48042;SDS011;33988;47.992;8.820;2023-11-19T09:03:14;2.20;;;2.00;;
48042;SDS011;33988;47.992;8.820;2023-11-19T09:05:42;2.55;;;1.95;;
48042;SDS011;33988;47.992;8.820;2023-11-19T09:08:13;2.40;;;2.00;;
48042;SDS011;33988;47.992;8.820;2023-11-19T09:10:40;2.60;;;2.20;;
48042;SDS011;33988;47.992;8.820;2023-11-19T09:13:07;2.10;;;1.90;;
48042;SDS011;33988;47.992;8.820;2023-11-19T09:15:34;1.50;;;1.40;;
48042;SDS011;33988;47.992;8.820;2023-11-19T09:18:01;2.05;;;1.27;;
48042;SDS011;33988;47.992;8.820;2023-11-19T09:20:28;1.27;;;1.05;;
48042;SDS011;33988;47.992;8.820;2023-11-19T09:22:59;1.50;;;1.27;;
48042;SDS011;33988;47.992;8.820;2023-11-19T09:25:25;1.52;;;1.23;;
48042;SDS011;33988;47.992;8.820;2023-11-19T09:27:52;1.17;;;0.93;;
48042;SDS011;33988;47.992;8.820;2023-11-19T09:30:19;0.90;;;0.75;;
48042;SDS011;33988;47.992;8.820;2023-11-19T09:32:46;1.05;;;0.90;;
48042;SDS011;33988;47.992;8.820;2023-11-19T09:35:16;1.10;;;1.00;;
48042;SDS011;33988;47.992;8.820;2023-11-19T09:37:43;1.58;;;0.90;;
48042;SDS011;33988;47.992;8.820;2023-11-19T09:40:10;1.00;;;0.90;;
48042;SDS011;33988;47.992;8.820;2023-11-19T09:42:42;0.82;;;0.65;;
48042;SDS011;33988;47.992;8.820;2023-11-19T09:45:16;1.40;;;1.13;;
48042;SDS011;33988;47.992;8.820;2023-11-19T09:47:47;2.03;;;1.20;;
48042;SDS011;33988;47.992;8.820;2023-11-19T09:50:19;2.33;;;1.30;;
48042;SDS011;33988;47.992;8.820;2023-11-19T09:52:48;1.30;;;1.20;;
48042;SDS011;33988;47.992;8.820;2023-11-19T09:55:18;1.92;;;1.10;;
48042;SDS011;33988;47.992;8.820;2023-11-19T09:57:48;1.40;;;1.30;;
48042;SDS011;33988;47.992;8.820;2023-11-19T10:00:20;2.25;;;1.55;;
48042;SDS011;33988;47.992;8.820;2023-11-19T10:02:50;1.45;;;1.35;;
48042;SDS011;33988;47.992;8.820;2023-11-19T10:05:17;1.95;;;1.20;;
48042;SDS011;33988;47.992;8.820;2023-11-19T10:07:47;6.80;;;1.20;;
48042;SDS011;33988;47.992;8.820;2023-11-19T10:10:14;1.10;;;1.00;;
48042;SDS011;33988;47.992;8.820;2023-11-19T10:12:45;1.50;;;0.90;;
48042;SDS011;33988;47.992;8.820;2023-11-19T10:15:22;0.93;;;0.73;;
48042;SDS011;33988;47.992;8.820;2023-11-19T10:17:56;1.42;;;0.65;;
48042;SDS011;33988;47.992;8.820;2023-11-19T10:20:26;0.95;;;0.50;;
48042;SDS011;33988;47.992;8.820;2023-11-19T10:22:55;0.47;;;0.40;;
48042;SDS011;33988;47.992;8.820;2023-11-19T10:25:25;0.32;;;0.32;;
48042;SDS011;33988;47.992;8.820;2023-11-19T10:30:30;0.40;;;0.40;;
48042;SDS011;33988;47.992;8.820;2023-11-19T10:33:06;0.45;;;0.40;;
48042;SDS011;33988;47.992;8.820;2023-11-19T10:35:52;0.32;;;0.32;;
48042;SDS011;33988;47.992;8.820;2023-11-19T10:38:29;0.57;;;0.57;;
48042;SDS011;33988;47.992;8.820;2023-11-19T10:40:57;0.57;;;0.40;;
48042;SDS011;33988;47.992;8.820;2023-11-19T10:43:24;0.50;;;0.50;;
48042;SDS011;33988;47.992;8.820;2023-11-19T10:45:51;0.70;;;0.60;;
48042;SDS011;33988;47.992;8.820;2023-11-19T10:48:21;1.00;;;0.90;;
48042;SDS011;33988;47.992;8.820;2023-11-19T10:50:53;2.25;;;1.10;;
48042;SDS011;33988;47.992;8.820;2023-11-19T10:53:23;2.55;;;1.90;;
48042;SDS011;33988;47.992;8.820;2023-11-19T10:55:55;2.10;;;1.42;;
48042;SDS011;33988;47.992;8.820;2023-11-19T10:58:27;1.63;;;1.50;;
48042;SDS011;33988;47.992;8.820;2023-11-19T11:01:01;1.45;;;1.30;;
48042;SDS011;33988;47.992;8.820;2023-11-19T11:03:29;2.90;;;1.70;;
48042;SDS011;33988;47.992;8.820;2023-11-19T11:06:08;1.67;;;1.55;;
48042;SDS011;33988;47.992;8.820;2023-11-19T11:08:42;1.83;;;1.50;;
48042;SDS011;33988;47.992;8.820;2023-11-19T11:11:09;1.42;;;1.30;;
48042;SDS011;33988;47.992;8.820;2023-11-19T11:13:42;1.75;;;1.30;;
48042;SDS011;33988;47.992;8.820;2023-11-19T11:16:10;2.27;;;1.93;;
48042;SDS011;33988;47.992;8.820;2023-11-19T11:18:37;2.15;;;1.88;;
48042;SDS011;33988;47.992;8.820;2023-11-19T11:21:11;2.00;;;1.77;;
48042;SDS011;33988;47.992;8.820;2023-11-19T11:38:22;1.05;;;0.70;;
48042;SDS011;33988;47.992;8.820;2023-11-19T11:43:54;1.48;;;1.25;;
48042;SDS011;33988;47.992;8.820;2023-11-19T11:49:02;1.23;;;0.85;;
48042;SDS011;33988;47.992;8.820;2023-11-19T11:54:10;12.73;;;5.90;;
48042;SDS011;33988;47.992;8.820;2023-11-19T11:56:40;7.53;;;3.90;;
48042;SDS011;33988;47.992;8.820;2023-11-19T11:59:07;5.60;;;3.00;;
48042;SDS011;33988;47.992;8.820;2023-11-19T12:01:57;2.35;;;1.30;;
48042;SDS011;33988;47.992;8.820;2023-11-19T12:04:27;3.83;;;1.63;;
48042;SDS011;33988;47.992;8.820;2023-11-19T12:07:19;46.25;;;16.60;;
48042;SDS011;33988;47.992;8.820;2023-11-19T12:09:53;17.02;;;7.82;;
48042;SDS011;33988;47.992;8.820;2023-11-19T12:12:34;7.80;;;3.90;;
48042;SDS011;33988;47.992;8.820;2023-11-19T12:15:06;3.00;;;1.73;;
48042;SDS011;33988;47.992;8.820;2023-11-19T12:20:18;1.77;;;0.90;;
48042;SDS011;33988;47.992;8.820;2023-11-19T12:22:52;0.52;;;0.52;;
48042;SDS011;33988;47.992;8.820;2023-11-19T12:25:22;0.50;;;0.32;;
48042;SDS011;33988;47.992;8.820;2023-11-19T12:27:52;0.30;;;0.30;;
48042;SDS011;33988;47.992;8.820;2023-11-19T12:30:23;0.50;;;0.50;;
48042;SDS011;33988;47.992;8.820;2023-11-19T12:32:55;0.50;;;0.50;;
48042;SDS011;33988;47.992;8.820;2023-11-19T12:35:22;0.52;;;0.43;;
48042;SDS011;33988;47.992;8.820;2023-11-19T12:37:52;0.20;;;0.20;;
48042;SDS011;33988;47.992;8.820;2023-11-19T12:40:24;0.30;;;0.30;;
48042;SDS011;33988;47.992;8.820;2023-11-19T12:42:55;0.68;;;0.60;;
48042;SDS011;33988;47.992;8.820;2023-11-19T12:45:22;0.60;;;0.60;;
48042;SDS011;33988;47.992;8.820;2023-11-19T12:48:07;0.57;;;0.43;;
48042;SDS011;33988;47.992;8.820;2023-11-19T12:50:57;1.42;;;0.70;;
48042;SDS011;33988;47.992;8.820;2023-11-19T12:53:28;0.80;;;0.77;;
48042;SDS011;33988;47.992;8.820;2023-11-19T12:55:55;0.60;;;0.60;;
48042;SDS011;33988;47.992;8.820;2023-11-19T12:58:32;0.50;;;0.40;;
48042;SDS011;33988;47.992;8.820;2023-11-19T13:01:04;0.70;;;0.50;;
48042;SDS011;33988;47.992;8.820;2023-11-19T13:03:33;0.80;;;0.60;;
48042;SDS011;33988;47.992;8.820;2023-11-19T13:06:07;0.30;;;0.30;;
48042;SDS011;33988;47.992;8.820;2023-11-19T13:08:42;0.40;;;0.35;;
48042;SDS011;33988;47.992;8.820;2023-11-19T13:11:12;0.40;;;0.40;;
48042;SDS011;33988;47.992;8.820;2023-11-19T13:16:29;0.50;;;0.50;;
48042;SDS011;33988;47.992;8.820;2023-11-19T13:18:57;0.68;;;0.60;;
48042;SDS011;33988;47.992;8.820;2023-11-19T13:21:28;2.25;;;0.82;;
48042;SDS011;33988;47.992;8.820;2023-11-19T13:23:56;1.15;;;0.70;;
48042;SDS011;33988;47.992;8.820;2023-11-19T13:26:26;0.55;;;0.45;;
48042;SDS011;33988;47.992;8.820;2023-11-19T13:28:53;0.75;;;0.50;;
48042;SDS011;33988;47.992;8.820;2023-11-19T13:31:20;0.50;;;0.50;;
48042;SDS011;33988;47.992;8.820;2023-11-19T13:33:47;1.33;;;0.77;;
48042;SDS011;33988;47.992;8.820;2023-11-19T13:36:17;1.65;;;0.88;;
48042;SDS011;33988;47.992;8.820;2023-11-19T13:38:44;1.40;;;1.30;;
48042;SDS011;33988;47.992;8.820;2023-11-19T13:41:14;1.98;;;1.50;;
48042;SDS011;33988;47.992;8.820;2023-11-19T13:43:41;1.08;;;0.98;;
48042;SDS011;33988;47.992;8.820;2023-11-19T13:46:08;0.45;;;0.45;;
48042;SDS011;33988;47.992;8.820;2023-11-19T13:48:40;0.57;;;0.57;;
48042;SDS011;33988;47.992;8.820;2023-11-19T13:53:39;0.80;;;0.57;;
48042;SDS011;33988;47.992;8.820;2023-11-19T13:56:12;0.70;;;0.70;;
48042;SDS011;33988;47.992;8.820;2023-11-19T13:58:39;0.85;;;0.70;;
48042;SDS011;33988;47.992;8.820;2023-11-19T14:01:06;0.75;;;0.65;;
48042;SDS011;33988;47.992;8.820;2023-11-19T14:03:39;0.50;;;0.50;;
48042;SDS011;33988;47.992;8.820;2023-11-19T14:06:06;2.03;;;0.75;;
48042;SDS011;33988;47.992;8.820;2023-11-19T14:08:36;2.05;;;1.17;;
48042;SDS011;33988;47.992;8.820;2023-11-19T14:11:04;7.13;;;2.72;;
48042;SDS011;33988;47.992;8.820;2023-11-19T14:13:31;4.03;;;2.45;;
48042;SDS011;33988;47.992;8.820;2023-11-19T14:15:59;3.42;;;1.73;;
48042;SDS011;33988;47.992;8.820;2023-11-19T14:18:26;5.05;;;2.38;;
48042;SDS011;33988;47.992;8.820;2023-11-19T14:20:58;6.28;;;3.00;;
48042;SDS011;33988;47.992;8.820;2023-11-19T14:23:26;2.17;;;1.25;;
48042;SDS011;33988;47.992;8.820;2023-11-19T14:25:55;1.35;;;1.10;;
48042;SDS011;33988;47.992;8.820;2023-11-19T14:28:24;1.45;;;1.20;;
48042;SDS011;33988;47.992;8.820;2023-11-19T14:30:56;1.83;;;1.10;;
48042;SDS011;33988;47.992;8.820;2023-11-19T14:33:23;1.02;;;0.90;;
48042;SDS011;33988;47.992;8.820;2023-11-19T14:35:50;1.23;;;0.90;;
48042;SDS011;33988;47.992;8.820;2023-11-19T14:38:18;0.60;;;0.57;;
48042;SDS011;33988;47.992;8.820;2023-11-19T14:40:47;0.73;;;0.57;;
48042;SDS011;33988;47.992;8.820;2023-11-19T14:43:14;0.50;;;0.50;;
48042;SDS011;33988;47.992;8.820;2023-11-19T14:45:41;0.60;;;0.60;;
48042;SDS011;33988;47.992;8.820;2023-11-19T14:48:17;0.43;;;0.43;;
48042;SDS011;33988;47.992;8.820;2023-11-19T14:50:47;0.77;;;0.40;;
48042;SDS011;33988;47.992;8.820;2023-11-19T14:53:16;0.73;;;0.70;;
48042;SDS011;33988;47.992;8.820;2023-11-19T14:55:46;1.13;;;0.63;;
48042;SDS011;33988;47.992;8.820;2023-11-19T14:58:13;0.77;;;0.60;;
48042;SDS011;33988;47.992;8.820;2023-11-19T15:00:42;0.68;;;0.50;;
48042;SDS011;33988;47.992;8.820;2023-11-19T15:03:13;0.70;;;0.55;;
48042;SDS011;33988;47.992;8.820;2023-11-19T15:05:42;0.50;;;0.50;;
48042;SDS011;33988;47.992;8.820;2023-11-19T15:08:09;1.20;;;0.50;;
48042;SDS011;33988;47.992;8.820;2023-11-19T15:10:41;0.95;;;0.63;;
48042;SDS011;33988;47.992;8.820;2023-11-19T15:13:08;2.55;;;0.82;;
48042;SDS011;33988;47.992;8.820;2023-11-19T15:15:35;0.70;;;0.70;;
48042;SDS011;33988;47.992;8.820;2023-11-19T15:18:02;1.10;;;0.60;;
48042;SDS011;33988;47.992;8.820;2023-11-19T15:20:35;1.88;;;0.90;;
48042;SDS011;33988;47.992;8.820;2023-11-19T15:23:05;2.47;;;1.00;;
48042;SDS011;33988;47.992;8.820;2023-11-19T15:25:34;1.35;;;0.90;;
48042;SDS011;33988;47.992;8.820;2023-11-19T15:28:02;1.35;;;0.90;;
48042;SDS011;33988;47.992;8.820;2023-11-19T15:30:30;1.52;;;1.00;;
48042;SDS011;33988;47.992;8.820;2023-11-19T15:32:57;2.28;;;1.25;;
48042;SDS011;33988;47.992;8.820;2023-11-19T15:35:26;2.10;;;1.38;;
48042;SDS011;33988;47.992;8.820;2023-11-19T15:37:54;1.70;;;1.30;;
48042;SDS011;33988;47.992;8.820;2023-11-19T15:40:22;2.85;;;1.80;;
48042;SDS011;33988;47.992;8.820;2023-11-19T15:42:49;1.67;;;1.33;;
48042;SDS011;33988;47.992;8.820;2023-11-19T15:45:16;2.67;;;1.35;;